Accueil
METAR-TAF:

METAR-TAF

Aéroports :

Avalon, Californie, États-Unis

latitude: 33-24-18N, longitude: 118-24-57W, altitude: 488 m

Observation

Le bulletin a été fait il y a 15 minutes, à 06:13 UTC
Vent 4 kt de sud-ouest
Température 13°C
Humidité 94%
Pression 1020 hPa
Visibilité: 16.1 km
Quelques nuages à une hauteur de 200 ft

METAR: KAVX 080613Z AUTO 22004KT 10SM FEW002 13/12 A3011 RMK AO2 T01330117

Heure: 22:28 (06:28 UTC)


TAF: absent

Observations et prévisions météorologiques de plus de 4000 aéroports (messages METAR et TAF).

Les stations disponibles sont représentées par des disques jaunes et rouges sur la carte.

Passer la souris dessus pour voir le nom de la station.

Cliquer dessus pour voir les observations et prévisions météorologiques.

Pour changer de carte: cliquez sur les boutons verts avec une croix noire pour zoomer, sur le bouton vert avec un tiret pour effectuer un zoom arrière, ou sur les flèches vertes pour les cartes adjacentes.


METAR-TAF: